Time;durP1;ratioP1;P1;durP2;ratioP2;P2;SDS_P1;SDS_P2;PMS_P1;PMS_P2;Temp;Humidity;BMP_temperature;BMP_pressure;BME280_temperature;BME280_humidity;BME280_pressure;Samples;Min_cycle;Max_cycle;Signal;HPM_P1;HPM_P2
2022/05/29 00:00:13;;;;;;;10.30;3.63;;;9.80;99.90;;;;;;5052597;28;20487;-81
2022/05/29 00:02:40;;;;;;;10.87;3.00;;;9.80;99.90;;;;;;5052163;28;20444;-82
2022/05/29 00:05:07;;;;;;;13.37;5.27;;;9.70;99.90;;;;;;5052283;28;20429;-80
2022/05/29 00:07:33;;;;;;;12.50;3.40;;;9.70;99.90;;;;;;5052770;28;20780;-83
2022/05/29 00:10:03;;;;;;;14.63;5.37;;;9.70;99.90;;;;;;5052685;28;20440;-81
2022/05/29 00:12:29;;;;;;;9.43;3.23;;;9.70;99.90;;;;;;5052353;28;20458;-81
2022/05/29 00:14:55;;;;;;;11.27;3.73;;;9.70;99.90;;;;;;5052584;28;20511;-81
2022/05/29 00:17:21;;;;;;;7.07;2.50;;;9.70;99.90;;;;;;5052145;28;20446;-82
2022/05/29 00:19:47;;;;;;;10.00;3.10;;;9.70;99.90;;;;;;5052465;28;20555;-82
2022/05/29 00:22:17;;;;;;;5.80;2.67;;;9.70;99.90;;;;;;5052589;28;20169;-82
2022/05/29 00:24:45;;;;;;;9.83;2.47;;;9.60;99.90;;;;;;5052510;28;20418;-83
2022/05/29 00:27:11;;;;;;;7.20;2.50;;;9.60;99.90;;;;;;5052085;28;20455;-82
2022/05/29 00:29:37;;;;;;;12.97;4.17;;;9.60;99.90;;;;;;5052499;28;20419;-78
2022/05/29 00:32:04;;;;;;;10.27;2.87;;;9.60;99.90;;;;;;5034336;28;20792;-82
2022/05/29 00:34:30;;;;;;;10.63;3.57;;;9.60;99.90;;;;;;5052263;28;20430;-82
2022/05/29 00:36:58;;;;;;;16.07;3.57;;;9.60;99.90;;;;;;5052343;28;20418;-79
2022/05/29 00:39:24;;;;;;;10.73;3.33;;;9.60;99.90;;;;;;5052249;28;20207;-81
2022/05/29 00:41:50;;;;;;;6.63;3.13;;;9.60;99.90;;;;;;5052323;28;20520;-83
2022/05/29 00:44:19;;;;;;;12.40;4.07;;;9.60;99.90;;;;;;5052257;28;20952;-79
2022/05/29 00:46:49;;;;;;;13.97;3.93;;;9.50;99.90;;;;;;5052143;28;20419;-80
2022/05/29 00:49:36;;;;;;;11.93;4.10;;;9.50;99.90;;;;;;5052006;28;20813;-78
2022/05/29 00:52:13;;;;;;;11.90;4.20;;;9.60;99.90;;;;;;5052059;28;20517;-78
2022/05/29 00:54:42;;;;;;;15.83;3.73;;;9.50;99.90;;;;;;5052095;28;20418;-81
2022/05/29 00:57:11;;;;;;;6.67;2.90;;;9.60;99.90;;;;;;5034286;28;20505;-78
2022/05/29 00:59:36;;;;;;;11.10;3.17;;;9.60;99.90;;;;;;5052037;28;20547;-78
2022/05/29 01:02:03;;;;;;;6.23;3.00;;;9.60;99.90;;;;;;5051734;28;20529;-77
2022/05/29 01:04:37;;;;;;;12.63;3.27;;;9.60;99.90;;;;;;5051136;28;20246;-78
2022/05/29 01:07:08;;;;;;;11.43;3.07;;;9.50;99.90;;;;;;5052022;28;20796;-81
2022/05/29 01:09:35;;;;;;;12.37;3.60;;;9.60;99.90;;;;;;5052008;28;20901;-78
2022/05/29 01:12:27;;;;;;;11.83;2.90;;;9.60;99.90;;;;;;5051382;28;20675;-78
2022/05/29 01:15:08;;;;;;;10.50;3.50;;;9.60;99.90;;;;;;5004537;28;20491;-77
2022/05/29 01:18:00;;;;;;;10.67;3.43;;;9.60;99.90;;;;;;5054562;28;20422;-78
2022/05/29 01:20:55;;;;;;;11.90;3.17;;;9.50;99.90;;;;;;5055861;28;20467;-77
2022/05/29 01:23:48;;;;;;;9.30;3.10;;;9.50;99.90;;;;;;5055742;28;20721;-78
2022/05/29 01:26:42;;;;;;;11.53;3.30;;;9.40;99.90;;;;;;5055724;28;20503;-78
2022/05/29 01:29:15;;;;;;;16.37;3.83;;;9.40;99.90;;;;;;5055727;28;20425;-77
2022/05/29 01:31:54;;;;;;;11.60;2.60;;;9.40;99.90;;;;;;5055599;28;20494;-78
2022/05/29 01:34:36;;;;;;;9.77;2.83;;;9.40;99.90;;;;;;5055578;28;20438;-78
2022/05/29 01:37:21;;;;;;;14.23;3.47;;;9.40;99.90;;;;;;5055665;28;20419;-78
2022/05/29 01:40:02;;;;;;;13.90;3.10;;;9.40;99.90;;;;;;5055529;28;20490;-77
2022/05/29 01:42:45;;;;;;;12.43;3.27;;;9.40;99.90;;;;;;5055550;28;20420;-78
2022/05/29 01:45:26;;;;;;;12.27;3.90;;;9.40;99.90;;;;;;5037649;28;20450;-79
2022/05/29 01:48:04;;;;;;;11.17;2.87;;;9.40;99.90;;;;;;5055008;28;20498;-81
2022/05/29 01:50:43;;;;;;;9.80;2.30;;;9.40;99.90;;;;;;5055464;28;20465;-78
2022/05/29 01:53:17;;;;;;;13.10;4.10;;;9.40;99.90;;;;;;5037518;28;20497;-78
2022/05/29 01:55:55;;;;;;;10.70;3.07;;;9.40;99.90;;;;;;5055227;28;20532;-79
2022/05/29 01:58:35;;;;;;;11.37;2.80;;;9.40;99.90;;;;;;5037765;28;20407;-78
2022/05/29 02:01:04;;;;;;;12.10;3.10;;;9.40;99.90;;;;;;5055053;28;20477;-78
2022/05/29 02:03:46;;;;;;;10.40;2.53;;;9.40;99.90;;;;;;5054604;28;20451;-82
2022/05/29 02:06:26;;;;;;;12.30;3.53;;;9.40;99.90;;;;;;5055136;28;20466;-79
2022/05/29 02:08:58;;;;;;;12.27;3.07;;;9.40;99.90;;;;;;5055173;28;20502;-82
2022/05/29 02:11:26;;;;;;;10.07;2.77;;;9.40;99.90;;;;;;5055063;28;20411;-78
2022/05/29 02:14:04;;;;;;;7.23;2.57;;;9.40;99.90;;;;;;5054718;28;20451;-82
2022/05/29 02:16:48;;;;;;;9.20;2.40;;;9.40;99.90;;;;;;5054902;28;20443;-77
2022/05/29 02:19:43;;;;;;;8.00;3.30;;;9.40;99.90;;;;;;5054643;28;20404;-78
2022/05/29 02:22:12;;;;;;;10.57;3.47;;;9.40;99.90;;;;;;5018806;28;20768;-77
2022/05/29 02:24:43;;;;;;;12.00;2.57;;;9.40;99.90;;;;;;5054525;28;20789;-81
2022/05/29 02:27:35;;;;;;;13.13;2.60;;;9.40;99.90;;;;;;5054312;28;20415;-78
2022/05/29 02:30:03;;;;;;;10.43;2.20;;;9.50;99.90;;;;;;5054663;28;20498;-77
2022/05/29 02:32:56;;;;;;;8.40;2.57;;;9.40;99.90;;;;;;5053907;28;20417;-78
2022/05/29 02:35:37;;;;;;;12.50;2.77;;;9.40;99.90;;;;;;5036616;28;20441;-81
2022/05/29 02:38:27;;;;;;;11.57;2.60;;;9.40;99.90;;;;;;5054470;28;20412;-77
2022/05/29 02:41:02;;;;;;;9.23;3.10;;;9.40;99.90;;;;;;5054297;28;20478;-81
2022/05/29 02:43:33;;;;;;;15.73;3.10;;;9.40;99.90;;;;;;5054432;28;20509;-78
2022/05/29 02:46:22;;;;;;;11.83;3.90;;;9.40;99.90;;;;;;5054366;28;20414;-81
2022/05/29 02:49:09;;;;;;;10.40;3.83;;;9.40;99.90;;;;;;5053832;28;20422;-78
2022/05/29 02:51:51;;;;;;;10.40;3.40;;;9.40;99.90;;;;;;5054189;28;20419;-79
2022/05/29 02:54:28;;;;;;;9.20;2.43;;;9.40;99.90;;;;;;5054096;28;20502;-78
2022/05/29 02:56:55;;;;;;;9.47;3.00;;;9.40;99.90;;;;;;5054148;28;20406;-78
2022/05/29 02:59:23;;;;;;;11.30;3.77;;;9.40;99.90;;;;;;5035981;28;20455;-78
2022/05/29 03:02:15;;;;;;;11.70;2.63;;;9.40;99.90;;;;;;5053567;28;20423;-78
2022/05/29 03:04:59;;;;;;;11.90;4.20;;;9.40;99.90;;;;;;5053994;28;20479;-82
2022/05/29 03:07:54;;;;;;;12.43;2.90;;;9.40;99.90;;;;;;5053799;28;20458;-82
2022/05/29 03:10:31;;;;;;;9.40;2.57;;;9.40;99.90;;;;;;5053653;28;20414;-77
2022/05/29 03:13:13;;;;;;;9.47;3.33;;;9.40;99.90;;;;;;5053759;28;20780;-82
2022/05/29 03:16:01;;;;;;;14.10;3.10;;;9.40;99.90;;;;;;5053995;28;20414;-78
2022/05/29 03:18:39;;;;;;;9.63;2.40;;;9.40;99.90;;;;;;5053409;28;20418;-79
2022/05/29 03:21:22;;;;;;;13.13;3.17;;;9.50;99.90;;;;;;5053675;28;20474;-82
2022/05/29 03:24:10;;;;;;;7.70;2.00;;;9.50;99.90;;;;;;5053634;28;20460;-77
2022/05/29 03:26:57;;;;;;;13.40;2.67;;;9.50;99.90;;;;;;5053748;28;20416;-82
2022/05/29 03:29:42;;;;;;;10.90;3.00;;;9.50;99.90;;;;;;5053664;28;20502;-77
2022/05/29 03:32:08;;;;;;;10.90;2.07;;;9.40;99.90;;;;;;5053067;28;20412;-82
2022/05/29 03:34:34;;;;;;;14.73;2.67;;;9.50;99.90;;;;;;5053520;28;20937;-80
2022/05/29 03:36:59;;;;;;;10.03;2.40;;;9.40;99.90;;;;;;5053382;28;20407;-81
2022/05/29 03:39:24;;;;;;;10.83;3.57;;;9.40;99.90;;;;;;5052442;28;20201;-79
2022/05/29 03:41:52;;;;;;;8.70;2.73;;;9.40;99.90;;;;;;5035591;28;20215;-81
2022/05/29 03:44:20;;;;;;;7.80;2.10;;;9.50;99.90;;;;;;5053412;28;20730;-81
2022/05/29 03:46:46;;;;;;;11.17;3.23;;;9.50;99.90;;;;;;5052942;28;20989;-81
2022/05/29 03:49:15;;;;;;;14.10;2.80;;;9.50;99.90;;;;;;5053277;28;20403;-81
2022/05/29 03:51:41;;;;;;;7.13;3.03;;;9.60;99.90;;;;;;5053438;28;20419;-81
2022/05/29 03:54:07;;;;;;;7.63;2.27;;;9.50;99.90;;;;;;5053181;28;20435;-81
2022/05/29 03:56:33;;;;;;;9.17;3.03;;;9.60;99.90;;;;;;5053237;28;20411;-81
2022/05/29 03:58:59;;;;;;;15.23;2.50;;;9.60;99.90;;;;;;5053126;28;20495;-81
2022/05/29 04:01:25;;;;;;;13.50;4.20;;;9.50;99.90;;;;;;5052890;28;20563;-79
2022/05/29 04:03:53;;;;;;;11.90;3.73;;;9.50;99.90;;;;;;5053031;28;20180;-79
2022/05/29 04:06:23;;;;;;;11.90;2.80;;;9.50;99.90;;;;;;5053102;28;20933;-78
2022/05/29 04:14:20;;;;;;;10.80;3.13;;;9.60;99.90;;;;;;5052864;28;20446;-79
2022/05/29 04:16:45;;;;;;;12.53;2.77;;;9.60;99.90;;;;;;5052616;28;20433;-79
2022/05/29 04:19:11;;;;;;;10.23;2.47;;;9.60;99.90;;;;;;5035016;28;20419;-78
2022/05/29 04:21:36;;;;;;;11.80;2.30;;;9.60;99.90;;;;;;5052855;28;20218;-80
2022/05/29 04:24:02;;;;;;;11.93;2.50;;;9.60;99.90;;;;;;5052846;28;20164;-79
2022/05/29 04:26:28;;;;;;;9.90;4.90;;;9.60;99.90;;;;;;5052820;28;20260;-78
2022/05/29 04:28:53;;;;;;;9.23;3.00;;;9.60;99.90;;;;;;5052753;28;20176;-79
2022/05/29 04:31:19;;;;;;;9.43;2.77;;;9.60;99.90;;;;;;5052760;28;20171;-79
2022/05/29 04:33:45;;;;;;;8.47;1.70;;;9.70;99.90;;;;;;5052554;28;20176;-79
2022/05/29 04:36:11;;;;;;;10.10;2.73;;;9.70;99.90;;;;;;5052817;28;20267;-81
2022/05/29 04:38:37;;;;;;;6.10;3.33;;;9.70;99.90;;;;;;5052712;28;20946;-79
2022/05/29 04:41:07;;;;;;;7.00;1.83;;;9.70;99.90;;;;;;5052678;28;20469;-78
2022/05/29 04:43:33;;;;;;;6.60;2.40;;;9.70;99.90;;;;;;5052644;28;20202;-80
2022/05/29 04:45:59;;;;;;;10.37;2.37;;;9.80;99.90;;;;;;5052648;28;20432;-80
2022/05/29 04:48:24;;;;;;;17.70;3.67;;;9.80;99.90;;;;;;5052335;28;20404;-78
2022/05/29 04:51:03;;;;;;;10.77;3.37;;;9.80;99.90;;;;;;5035435;28;20173;-79
2022/05/29 04:53:30;;;;;;;6.50;2.37;;;9.80;99.90;;;;;;5038732;28;20423;-80
2022/05/29 04:55:57;;;;;;;16.77;3.30;;;9.80;99.90;;;;;;5056611;28;20416;-81
2022/05/29 04:58:24;;;;;;;12.63;2.60;;;9.80;99.90;;;;;;5056520;28;20427;-80
2022/05/29 05:00:55;;;;;;;15.57;2.80;;;9.90;99.90;;;;;;5038590;28;20473;-79
2022/05/29 05:03:21;;;;;;;11.47;3.87;;;9.90;99.90;;;;;;5056010;28;20415;-79
2022/05/29 05:05:47;;;;;;;14.27;2.80;;;9.90;99.90;;;;;;5038521;28;20428;-79
2022/05/29 05:08:12;;;;;;;15.03;2.40;;;10.00;99.90;;;;;;5056337;28;20168;-80
2022/05/29 05:10:40;;;;;;;19.10;2.77;;;10.00;99.90;;;;;;5056327;28;20913;-78
2022/05/29 05:13:06;;;;;;;13.00;2.70;;;10.00;99.90;;;;;;5056022;28;20689;-79
2022/05/29 05:15:32;;;;;;;11.93;2.53;;;10.00;99.90;;;;;;5056245;28;20771;-79
2022/05/29 05:17:57;;;;;;;9.00;2.23;;;10.10;99.90;;;;;;5055698;28;20417;-78
2022/05/29 05:20:23;;;;;;;7.20;2.47;;;10.10;99.90;;;;;;5038200;28;20209;-80
2022/05/29 05:22:51;;;;;;;9.67;2.00;;;10.10;99.90;;;;;;5056058;28;20172;-79
2022/05/29 05:25:17;;;;;;;11.70;2.40;;;10.10;99.90;;;;;;5056091;28;20170;-83
2022/05/29 05:27:42;;;;;;;13.40;4.00;;;10.10;99.90;;;;;;5055885;28;20512;-83
2022/05/29 05:30:09;;;;;;;8.70;3.03;;;10.20;99.90;;;;;;5056121;28;20176;-82
2022/05/29 05:32:34;;;;;;;12.73;2.33;;;10.20;99.90;;;;;;5055528;28;20275;-78
2022/05/29 05:35:03;;;;;;;8.43;2.30;;;10.30;99.90;;;;;;5055860;28;20920;-79
2022/05/29 05:37:29;;;;;;;10.00;2.37;;;10.40;99.90;;;;;;5055808;28;20256;-82
2022/05/29 05:39:55;;;;;;;12.80;3.37;;;10.30;99.90;;;;;;5055683;28;20543;-82
2022/05/29 05:42:20;;;;;;;9.93;3.10;;;10.30;99.90;;;;;;5055715;28;20188;-83
2022/05/29 05:44:48;;;;;;;8.47;2.03;;;10.40;99.90;;;;;;5055667;28;20217;-81
2022/05/29 05:47:13;;;;;;;10.20;3.20;;;10.40;99.90;;;;;;5055269;28;20166;-85
2022/05/29 05:49:39;;;;;;;8.13;2.20;;;10.40;99.90;;;;;;5055506;28;20417;-82
2022/05/29 05:52:05;;;;;;;5.13;1.83;;;10.40;99.90;;;;;;5055495;28;20177;-83
2022/05/29 05:54:34;;;;;;;12.43;2.27;;;10.30;99.90;;;;;;5055489;28;20414;-82
2022/05/29 05:56:59;;;;;;;11.10;1.63;;;10.30;99.90;;;;;;5055449;28;20179;-81
2022/05/29 05:59:25;;;;;;;18.40;3.40;;;10.40;99.90;;;;;;5055328;28;20465;-83
2022/05/29 06:01:50;;;;;;;13.53;3.80;;;10.40;99.90;;;;;;5054813;28;20585;-82
2022/05/29 06:04:16;;;;;;;11.23;2.70;;;10.40;99.90;;;;;;5054390;28;20683;-82
2022/05/29 06:06:41;;;;;;;11.97;2.40;;;10.40;99.90;;;;;;5055301;28;20174;-83
2022/05/29 06:09:07;;;;;;;10.27;2.40;;;10.50;99.90;;;;;;5055200;28;20194;-82
2022/05/29 06:11:33;;;;;;;9.30;2.23;;;10.50;99.90;;;;;;5055246;28;20173;-82
2022/05/29 06:13:59;;;;;;;14.27;3.07;;;10.60;99.90;;;;;;5054886;28;20643;-82
2022/05/29 06:16:24;;;;;;;11.20;2.50;;;10.60;99.90;;;;;;5054676;28;20412;-82
2022/05/29 06:18:50;;;;;;;11.57;2.10;;;10.70;99.90;;;;;;5055015;28;20249;-83
2022/05/29 06:21:15;;;;;;;9.97;3.47;;;10.80;99.90;;;;;;5054952;28;20616;-82
2022/05/29 06:23:41;;;;;;;9.03;1.80;;;10.90;99.90;;;;;;5054896;28;20202;-83
2022/05/29 06:26:11;;;;;;;14.57;3.10;;;11.00;99.90;;;;;;5054919;28;20166;-81
2022/05/29 06:28:36;;;;;;;15.47;2.80;;;11.10;99.90;;;;;;5036902;28;20417;-82
2022/05/29 06:31:04;;;;;;;16.10;2.33;;;11.20;99.90;;;;;;5054793;28;20439;-85
2022/05/29 06:33:30;;;;;;;13.77;2.97;;;11.20;99.90;;;;;;5055052;28;20649;-86
2022/05/29 06:36:13;;;;;;;9.73;2.30;;;11.20;99.90;;;;;;5054900;28;20762;-85
2022/05/29 06:38:39;;;;;;;8.03;2.10;;;11.20;99.90;;;;;;5036886;28;20435;-83
2022/05/29 06:41:06;;;;;;;9.63;2.60;;;11.20;99.90;;;;;;5054898;28;20897;-84
2022/05/29 06:43:32;;;;;;;7.77;1.40;;;11.10;99.90;;;;;;5054813;28;20769;-84
2022/05/29 06:45:59;;;;;;;7.57;2.13;;;11.20;99.90;;;;;;5054554;28;20420;-85
2022/05/29 06:48:25;;;;;;;11.20;2.50;;;11.20;99.90;;;;;;5055725;28;20503;-84
2022/05/29 06:50:50;;;;;;;11.67;2.60;;;11.30;99.90;;;;;;5055210;28;20448;-84
2022/05/29 06:53:16;;;;;;;6.90;2.10;;;11.40;99.90;;;;;;5054965;28;20194;-84
2022/05/29 06:55:50;;;;;;;15.37;3.03;;;11.60;99.90;;;;;;5055250;28;20228;-84
2022/05/29 06:58:16;;;;;;;11.83;3.00;;;11.60;99.90;;;;;;5055009;28;20172;-85
2022/05/29 07:09:11;;;;;;;5.57;2.10;;;11.60;99.90;;;;;;5044473;28;20892;-82
2022/05/29 07:11:41;;;;;;;8.23;1.97;;;11.60;99.90;;;;;;5054887;28;20438;-83
2022/05/29 07:14:07;;;;;;;9.47;1.80;;;11.80;99.90;;;;;;5054712;28;20227;-84
2022/05/29 07:16:34;;;;;;;8.53;1.70;;;11.80;99.90;;;;;;5054156;28;20418;-79
2022/05/29 07:19:00;;;;;;;4.80;2.87;;;11.70;99.90;;;;;;5054518;28;20419;-79
2022/05/29 07:21:28;;;;;;;6.30;1.70;;;11.70;99.90;;;;;;5054380;28;20499;-80
2022/05/29 07:23:54;;;;;;;9.90;1.63;;;11.60;99.90;;;;;;5054335;28;20190;-80
2022/05/29 07:26:20;;;;;;;5.47;1.63;;;11.50;99.90;;;;;;5054454;28;20429;-83
2022/05/29 07:28:46;;;;;;;12.50;2.87;;;11.50;99.90;;;;;;5054153;28;20453;-86
2022/05/29 07:31:12;;;;;;;5.90;1.73;;;11.40;99.90;;;;;;5036113;28;20261;-86
2022/05/29 07:33:38;;;;;;;8.00;2.50;;;11.40;99.90;;;;;;5054225;28;20182;-85
2022/05/29 07:36:11;;;;;;;7.33;1.73;;;11.40;99.90;;;;;;5054204;28;20209;-84
2022/05/29 07:38:38;;;;;;;5.37;2.10;;;11.40;99.90;;;;;;5054154;28;20418;-86
2022/05/29 07:43:18;;;;;;;6.70;1.97;;;11.40;99.90;;;;;;5054017;28;20469;-86
2022/05/29 07:43:54;;;;;;;8.83;2.10;;;11.30;99.90;;;;;;5053715;28;20559;-85
2022/05/29 07:46:25;;;;;;;8.27;2.93;;;11.30;99.90;;;;;;5052979;28;20414;-84
2022/05/29 07:48:51;;;;;;;4.87;1.43;;;11.30;99.90;;;;;;5053778;28;20418;-86
2022/05/29 07:51:20;;;;;;;4.33;2.03;;;11.30;99.90;;;;;;5053679;28;20419;-86
2022/05/29 07:53:49;;;;;;;6.47;1.43;;;11.20;99.90;;;;;;5053713;28;20421;-84
2022/05/29 07:56:16;;;;;;;6.70;2.57;;;11.10;99.90;;;;;;5054401;28;20427;-84
2022/05/29 07:58:43;;;;;;;7.37;1.67;;;11.10;99.90;;;;;;5054784;28;20446;-86
2022/05/29 08:01:09;;;;;;;5.80;1.57;;;11.10;99.90;;;;;;5052838;28;20475;-82
2022/05/29 08:03:35;;;;;;;5.90;1.93;;;11.10;99.90;;;;;;5053134;28;21051;-81
2022/05/29 08:06:01;;;;;;;5.80;1.17;;;11.10;99.90;;;;;;5053065;28;20451;-82
2022/05/29 08:08:29;;;;;;;5.83;1.60;;;11.20;99.90;;;;;;5053027;28;20169;-79
2022/05/29 08:10:55;;;;;;;8.37;2.77;;;11.40;99.90;;;;;;5053200;28;20521;-80
2022/05/29 08:13:21;;;;;;;5.60;1.63;;;11.40;99.90;;;;;;5052912;28;20530;-79
2022/05/29 08:15:46;;;;;;;8.23;2.77;;;11.40;99.90;;;;;;5052717;28;20450;-80
2022/05/29 08:18:12;;;;;;;9.37;2.10;;;11.50;99.90;;;;;;5052997;28;20211;-81
2022/05/29 08:20:38;;;;;;;5.90;2.60;;;11.70;99.90;;;;;;5052892;28;20322;-80
2022/05/29 08:23:05;;;;;;;7.70;2.40;;;11.80;99.90;;;;;;5053100;28;20411;-83
2022/05/29 08:31:00;;;;;;;3.53;1.73;;;11.90;99.90;;;;;;5048997;28;20890;-81
2022/05/29 08:33:29;;;;;;;5.20;2.10;;;12.00;99.90;;;;;;5052564;28;20458;-82
2022/05/29 08:36:19;;;;;;;8.40;1.93;;;12.10;99.90;;;;;;5052722;28;20563;-84
2022/05/29 08:38:46;;;;;;;5.77;1.30;;;12.20;99.90;;;;;;5052504;28;20407;-83
2022/05/29 08:41:26;;;;;;;8.67;2.23;;;12.30;99.90;;;;;;5052266;28;20506;-82
2022/05/29 08:44:05;;;;;;;7.27;1.50;;;12.50;99.90;;;;;;5052381;28;20407;-80
2022/05/29 08:46:49;;;;;;;6.50;2.10;;;12.70;99.90;;;;;;5051928;28;20919;-83
2022/05/29 08:49:20;;;;;;;5.80;1.77;;;12.90;99.90;;;;;;5052445;28;20400;-81
2022/05/29 08:52:00;;;;;;;4.80;1.03;;;13.20;99.90;;;;;;5052488;28;20848;-82
2022/05/29 08:54:46;;;;;;;4.53;1.43;;;13.20;99.90;;;;;;5052075;28;20408;-80
2022/05/29 08:57:30;;;;;;;3.50;1.23;;;13.40;99.90;;;;;;5032449;28;20436;-79
2022/05/29 08:59:59;;;;;;;6.10;1.27;;;13.40;99.90;;;;;;5032325;28;20936;-78
2022/05/29 09:02:53;;;;;;;3.23;1.33;;;13.40;99.90;;;;;;5033373;28;20411;-89
2022/05/29 09:05:35;;;;;;;6.83;2.20;;;13.40;99.90;;;;;;5034716;28;20431;-79
2022/05/29 09:08:24;;;;;;;5.53;1.67;;;13.40;99.90;;;;;;5016176;28;20426;-84
2022/05/29 09:10:55;;;;;;;7.80;1.70;;;13.30;99.90;;;;;;5032591;28;20426;-80
2022/05/29 09:13:45;;;;;;;5.30;1.20;;;13.10;99.90;;;;;;5032163;28;20472;-79
2022/05/29 09:16:15;;;;;;;7.80;1.93;;;12.90;99.90;;;;;;5032099;28;20942;-85
2022/05/29 09:18:50;;;;;;;9.67;2.50;;;12.80;99.90;;;;;;5032482;28;20432;-86
2022/05/29 09:21:18;;;;;;;6.00;1.53;;;12.60;99.90;;;;;;5018279;28;20460;-82
2022/05/29 09:23:56;;;;;;;5.37;1.60;;;12.50;99.90;;;;;;5042014;28;20420;-84
2022/05/29 09:26:22;;;;;;;9.03;2.10;;;12.30;99.90;;;;;;5030812;28;20688;-80
2022/05/29 09:28:47;;;;;;;7.47;2.17;;;12.10;99.90;;;;;;5032354;28;20478;-81
2022/05/29 09:31:20;;;;;;;6.80;1.87;;;12.10;99.90;;;;;;5014349;28;20226;-81
2022/05/29 09:33:46;;;;;;;8.07;2.00;;;12.00;99.90;;;;;;5032255;28;20222;-81
2022/05/29 09:36:19;;;;;;;6.00;1.40;;;11.90;99.90;;;;;;5032266;28;20419;-81
2022/05/29 09:38:53;;;;;;;6.60;1.80;;;11.90;99.90;;;;;;5034229;28;20766;-80
2022/05/29 09:41:34;;;;;;;3.60;1.40;;;12.00;99.90;;;;;;5035759;28;20468;-80
2022/05/29 09:44:09;;;;;;;4.37;1.40;;;12.10;99.90;;;;;;5035907;28;20412;-80
2022/05/29 09:46:37;;;;;;;9.60;2.50;;;12.20;99.90;;;;;;5035410;28;20423;-81
2022/05/29 09:52:07;;;;;;;6.93;2.07;;;12.30;99.90;;;;;;5054158;28;20406;-80
2022/05/29 09:54:50;;;;;;;5.80;1.40;;;12.30;99.90;;;;;;5049876;28;20938;-81
2022/05/29 09:57:24;;;;;;;5.67;2.43;;;12.30;99.90;;;;;;5055141;28;20418;-82
2022/05/29 09:59:55;;;;;;;5.60;1.20;;;12.40;99.90;;;;;;5055067;28;20459;-81
2022/05/29 10:02:31;;;;;;;6.53;2.00;;;12.40;99.90;;;;;;5036914;28;20806;-82
2022/05/29 10:04:59;;;;;;;3.50;1.67;;;12.30;99.90;;;;;;5055118;28;20938;-84
2022/05/29 10:07:35;;;;;;;3.57;1.77;;;12.30;99.90;;;;;;5055042;28;20419;-83
2022/05/29 10:10:02;;;;;;;5.43;1.30;;;12.40;99.90;;;;;;5055006;28;20510;-82
2022/05/29 10:12:44;;;;;;;5.10;2.10;;;12.50;99.90;;;;;;5054645;28;20452;-81
2022/05/29 10:15:25;;;;;;;5.70;1.73;;;12.50;99.90;;;;;;5054888;28;20429;-83
2022/05/29 10:18:04;;;;;;;6.07;1.90;;;12.50;99.90;;;;;;5046433;28;20431;-83
2022/05/29 10:20:36;;;;;;;8.23;2.30;;;12.50;99.90;;;;;;5043143;28;20466;-83
2022/05/29 10:23:32;;;;;;;4.33;1.07;;;12.50;99.90;;;;;;5042382;28;20759;-82
2022/05/29 10:26:01;;;;;;;5.23;3.23;;;12.50;99.90;;;;;;5038039;28;20420;-83
2022/05/29 10:28:34;;;;;;;3.90;1.33;;;12.30;99.90;;;;;;5042776;28;20424;-82
2022/05/29 10:31:02;;;;;;;6.10;1.90;;;12.30;99.90;;;;;;5041860;28;20412;-82
2022/05/29 10:33:33;;;;;;;4.37;1.97;;;12.20;99.90;;;;;;5043593;28;20935;-83
2022/05/29 10:36:10;;;;;;;3.10;0.90;;;12.30;99.90;;;;;;5044190;28;20419;-83
2022/05/29 10:38:36;;;;;;;3.63;1.10;;;12.40;99.90;;;;;;5043861;28;20738;-83
2022/05/29 10:41:05;;;;;;;4.10;1.13;;;12.40;99.90;;;;;;5039301;28;20469;-81
2022/05/29 10:43:44;;;;;;;4.87;0.80;;;12.40;99.90;;;;;;5034446;28;20414;-83
2022/05/29 10:46:55;;;;;;;4.80;1.53;;;12.40;99.90;;;;;;5033980;28;20441;-82
2022/05/29 10:49:29;;;;;;;6.70;1.17;;;12.50;99.90;;;;;;5033885;28;20435;-82
2022/05/29 10:52:10;;;;;;;5.90;2.03;;;12.50;99.90;;;;;;5026646;28;20921;-81
2022/05/29 10:55:13;;;;;;;3.77;1.60;;;12.40;99.90;;;;;;5034262;28;20413;-82
2022/05/29 10:58:09;;;;;;;4.90;1.33;;;12.40;99.90;;;;;;5034137;28;20415;-82
2022/05/29 11:01:02;;;;;;;4.87;1.37;;;12.20;99.90;;;;;;4999222;28;20479;-83
2022/05/29 11:03:56;;;;;;;6.43;1.67;;;12.30;99.90;;;;;;5034111;28;20419;-83
2022/05/29 11:06:21;;;;;;;5.40;1.50;;;12.40;99.90;;;;;;5034044;28;20417;-84
2022/05/29 11:09:06;;;;;;;5.73;1.00;;;12.60;99.90;;;;;;5034042;28;20492;-81
2022/05/29 11:11:55;;;;;;;3.47;0.90;;;12.50;99.90;;;;;;5034022;28;20597;-81
2022/05/29 11:14:23;;;;;;;4.40;1.43;;;12.80;99.90;;;;;;5033701;28;20425;-84
2022/05/29 11:17:11;;;;;;;3.70;1.23;;;13.00;99.90;;;;;;5033380;28;20517;-83
2022/05/29 11:20:04;;;;;;;3.63;0.60;;;13.00;99.90;;;;;;5033651;28;20417;-82
2022/05/29 11:22:45;;;;;;;5.90;1.70;;;13.00;99.90;;;;;;5033639;28;20786;-81
2022/05/29 11:25:48;;;;;;;4.63;1.27;;;13.10;99.90;;;;;;5033701;28;20434;-84
2022/05/29 11:28:27;;;;;;;5.63;0.97;;;12.90;99.90;;;;;;5014609;28;20802;-82
2022/05/29 11:31:29;;;;;;;3.27;0.60;;;12.80;99.90;;;;;;5025300;28;20802;-83
2022/05/29 11:34:14;;;;;;;3.40;1.13;;;12.60;99.90;;;;;;5033492;28;20464;-83
2022/05/29 11:37:11;;;;;;;4.20;1.33;;;12.60;99.90;;;;;;5015977;28;20497;-83
2022/05/29 11:39:46;;;;;;;5.23;0.57;;;12.70;99.90;;;;;;5033285;28;20413;-82
2022/05/29 11:42:24;;;;;;;4.47;0.80;;;12.60;99.90;;;;;;5033328;28;20428;-80
2022/05/29 11:45:22;;;;;;;6.33;0.90;;;12.70;99.90;;;;;;5015661;28;20428;-83
2022/05/29 11:51:08;;;;;;;3.00;1.10;;;12.90;99.90;;;;;;5046890;28;20458;-82
2022/05/29 11:53:41;;;;;;;4.30;1.43;;;12.90;99.90;;;;;;5052962;28;20499;-82
2022/05/29 11:56:15;;;;;;;6.00;1.20;;;12.80;99.90;;;;;;5033267;28;20479;-83
2022/05/29 11:58:44;;;;;;;4.20;0.83;;;12.80;99.90;;;;;;5043043;28;20494;-83
2022/05/29 12:01:15;;;;;;;4.00;1.63;;;12.90;99.90;;;;;;5051784;28;20471;-82
2022/05/29 12:03:48;;;;;;;2.70;1.33;;;12.90;99.90;;;;;;5035108;28;20768;-80
2022/05/29 12:06:29;;;;;;;3.60;0.90;;;12.90;99.90;;;;;;5052906;28;20473;-80
2022/05/29 12:09:01;;;;;;;6.60;1.37;;;12.80;99.90;;;;;;5052865;28;20423;-83
2022/05/29 12:11:48;;;;;;;4.53;1.27;;;12.80;99.90;;;;;;5052799;28;20408;-82
2022/05/29 12:14:47;;;;;;;3.50;1.00;;;12.90;99.90;;;;;;5052445;28;20514;-79
2022/05/29 12:17:23;;;;;;;6.13;0.83;;;13.00;99.90;;;;;;5052392;28;20427;-81
2022/05/29 12:20:10;;;;;;;7.30;1.73;;;13.00;99.90;;;;;;5052565;28;20470;-80
2022/05/29 12:22:47;;;;;;;6.60;1.40;;;13.20;99.90;;;;;;5034826;28;20424;-80
2022/05/29 12:25:42;;;;;;;4.87;1.80;;;13.20;99.90;;;;;;5052607;28;20404;-82
2022/05/29 12:28:28;;;;;;;3.33;0.90;;;13.40;99.90;;;;;;5034789;28;20432;-82
2022/05/29 12:30:54;;;;;;;5.97;1.70;;;13.50;99.90;;;;;;5052266;28;21019;-83
2022/05/29 12:33:23;;;;;;;3.87;0.90;;;13.60;99.90;;;;;;5034775;28;20769;-80
2022/05/29 12:36:29;;;;;;;5.03;1.00;;;13.80;99.90;;;;;;5052076;28;20444;-80
2022/05/29 12:39:28;;;;;;;4.20;1.47;;;13.90;99.90;;;;;;5052685;28;20816;-82
2022/05/29 12:42:15;;;;;;;3.97;1.50;;;13.80;99.90;;;;;;5045191;28;20475;-82
2022/05/29 12:45:23;;;;;;;3.67;1.17;;;13.80;99.90;;;;;;5041460;28;20437;-83
2022/05/29 12:48:28;;;;;;;4.13;1.07;;;13.90;99.90;;;;;;5042216;28;20816;-79
2022/05/29 12:50:56;;;;;;;3.00;0.77;;;13.80;99.90;;;;;;5022778;28;20407;-80
2022/05/29 12:53:37;;;;;;;3.37;0.83;;;13.90;99.90;;;;;;5040965;28;20410;-80
2022/05/29 12:56:31;;;;;;;3.70;0.90;;;14.10;99.90;;;;;;5041865;28;20756;-80
2022/05/29 12:59:08;;;;;;;4.57;1.50;;;14.20;99.90;;;;;;5039488;28;20413;-80
2022/05/29 13:01:41;;;;;;;4.70;0.83;;;14.30;99.90;;;;;;5040091;28;20995;-83
2022/05/29 13:04:25;;;;;;;4.37;2.73;;;14.00;99.90;;;;;;5040134;28;20431;-80
2022/05/29 13:07:17;;;;;;;4.43;1.33;;;13.60;99.90;;;;;;5020881;28;20437;-82
2022/05/29 13:09:59;;;;;;;2.40;0.70;;;13.40;99.90;;;;;;5040716;28;20425;-79
2022/05/29 13:12:29;;;;;;;4.20;0.93;;;13.10;99.90;;;;;;5025389;28;20443;-81
2022/05/29 13:14:59;;;;;;;3.80;0.60;;;12.90;99.90;;;;;;5044089;28;20433;-81
2022/05/29 13:17:29;;;;;;;3.93;1.13;;;12.80;99.90;;;;;;5044208;28;20412;-81
2022/05/29 13:19:55;;;;;;;3.03;0.83;;;12.70;99.90;;;;;;5038187;28;20955;-83
2022/05/29 13:22:21;;;;;;;2.97;0.67;;;12.70;99.90;;;;;;5044882;28;20420;-79
2022/05/29 13:24:59;;;;;;;2.67;0.63;;;12.60;99.90;;;;;;5043870;28;20188;-82
2022/05/29 13:27:25;;;;;;;4.43;1.20;;;12.50;99.90;;;;;;5045607;28;20198;-81
2022/05/29 13:29:56;;;;;;;3.90;1.70;;;12.50;99.90;;;;;;5043375;28;20440;-82
2022/05/29 13:32:28;;;;;;;2.30;1.10;;;12.40;99.90;;;;;;5044355;28;20568;-83
2022/05/29 13:35:15;;;;;;;3.20;1.17;;;12.40;99.90;;;;;;5037836;28;20411;-83
2022/05/29 13:37:49;;;;;;;3.53;1.07;;;12.40;99.90;;;;;;5044655;28;20524;-80
2022/05/29 13:40:21;;;;;;;3.70;1.40;;;12.40;99.90;;;;;;5026075;28;20463;-81
2022/05/29 13:42:53;;;;;;;2.80;1.17;;;12.40;99.90;;;;;;5043642;28;20411;-82
2022/05/29 13:45:21;;;;;;;5.00;1.50;;;12.30;99.90;;;;;;5043928;28;20451;-80
2022/05/29 13:48:08;;;;;;;5.00;1.03;;;12.30;99.90;;;;;;5043205;28;21627;-80